Terminal Aerodrome Forecast
Issued by NWS

Home | Current Version | Previous Version | Text Only | Print | Product List | Glossary On
Versions: 1 2 3 4 5 6 7 8 9 10 11 12 13 14
000
FTUS45 KRIW 042300
TAFBPI
TAF
KBPI 042327Z 0500/0524 32007KT P6SM VCTS SCT080CB BKN150
      TEMPO 0500/0502 VRB15G25KT -TSRA BKN050CB
     FM050300 VRB06KT P6SM VCSH SCT040 BKN100
     FM050500 13011KT P6SM -SHRA FEW008 SCT020 OVC040
     FM051000 VRB06KT P6SM SCT010 BKN040
     FM051800 VRB10G15KT P6SM VCTS SCT040CB BKN090=

USA.gov is the U.S. government's official web portal to all federal, state and local government web resources and services.